MST,Max TemperatureF,Mean TemperatureF,Min TemperatureF,Max Dew PointF,MeanDew PointF,Min DewpointF,Max Humidity, Mean Humidity, Min Humidity, Max Sea Level PressureIn, Mean Sea Level PressureIn, Min Sea Level PressureIn, Max VisibilityMiles, Mean VisibilityMiles, Min VisibilityMiles, Max Wind SpeedMPH, Mean Wind SpeedMPH, Max Gust SpeedMPH,PrecipitationIn, CloudCover, Events, WindDirDegrees
2013-11-1,41,34,26,30,23,16,78,58,37,30.19,29.97,29.76,10,9,2,26,13,45,0.01,3,Snow,308
2013-11-2,49,37,25,26,21,18,72,53,34,30.19,29.97,29.56,10,10,10,20,7,29,0.00,0,,245
2013-11-3,49,40,31,28,24,20,70,52,34,29.77,29.60,29.51,10,10,9,21,8,32,T,2,Snow,267
2013-11-4,37,30,23,25,18,12,92,65,38,30.09,29.99,29.80,10,7,1,15,6,23,0.05,6,Snow,239
2013-11-5,26,18,10,22,20,9,96,88,80,30.21,30.05,29.96,10,4,0,10,5,15,0.33,7,Fog-Snow,56
2013-11-6,37,25,12,28,19,10,88,71,53,30.35,30.20,30.07,10,9,0,23,7,32,0.01,2,Fog-Snow,296
2013-11-7,41,31,20,28,22,15,84,65,45,30.40,30.23,29.81,10,10,10,12,5,15,0.00,2,,243
2013-11-8,45,39,33,31,21,18,64,52,39,29.99,29.77,29.67,10,10,10,29,12,43,T,2,Rain,286
2013-11-9,43,35,26,26,22,19,78,61,43,30.34,30.20,30.01,10,10,10,10,3,14,0.00,5,,242
2013-11-10,56,41,25,27,24,17,78,55,32,30.27,30.15,30.08,10,10,10,15,6,21,0.00,1,,272
2013-11-11,32,24,16,26,20,13,100,89,78,30.71,30.41,30.10,10,4,0,10,3,13,T,8,Fog-Snow,196
2013-11-12,51,33,14,25,19,10,92,59,26,30.71,30.49,30.18,10,10,10,17,6,22,0.00,0,,258
2013-11-13,59,48,36,35,23,11,64,43,21,30.16,30.05,29.94,10,10,10,13,4,17,0.03,3,Rain,9
2013-11-14,45,35,25,34,27,21,92,69,45,30.06,29.95,29.78,10,10,5,20,4,28,0.02,2,Rain-Snow,288
2013-11-15,44,34,24,26,23,19,88,64,39,29.74,29.54,29.37,10,10,10,15,5,21,0.00,0,,250
2013-11-16,40,33,25,24,19,16,81,63,44,29.42,29.34,29.25,10,10,10,24,9,35,0.00,2,,261
2013-11-17,34,27,19,25,17,7,85,62,38,30.10,29.73,29.39,10,8,0,26,9,46,0.03,2,Fog-Snow,288
2013-11-18,46,31,15,20,14,8,73,52,31,30.15,30.07,29.91,10,10,10,14,5,20,0.00,0,,259
2013-11-19,51,41,31,25,21,17,56,45,34,29.85,29.68,29.56,10,10,10,20,8,28,0.00,0,,277
2013-11-20,47,32,16,28,21,12,100,73,45,30.15,29.90,29.70,10,7,0,13,5,18,0.01,5,Fog-Snow,64
2013-11-21,16,8,-1,12,4,-9,95,74,53,30.71,30.35,30.08,10,4,0,9,3,14,0.12,6,Fog-Snow,39
2013-11-22,35,17,-1,6,-5,-18,62,40,18,30.67,30.64,30.58,10,10,10,17,6,22,0.00,0,,297
2013-11-23,35,24,12,9,5,1,64,45,26,30.71,30.58,30.36,10,10,10,13,5,15,0.00,0,,248
2013-11-24,56,39,22,27,16,4,58,43,27,30.32,30.07,29.90,10,10,10,18,7,24,0.00,1,,302
2013-11-25,42,34,25,21,17,13,68,54,40,30.31,30.20,30.01,10,10,10,14,4,20,0.00,3,,334
2013-11-26,37,29,21,19,15,9,68,53,37,30.42,30.33,30.19,10,10,10,12,4,18,0.00,1,,259
2013-11-27,53,39,25,20,15,9,69,46,22,30.15,30.05,29.94,10,10,10,18,6,26,0.00,0,,294
2013-11-28,41,30,18,23,18,14,84,61,37,30.27,30.19,30.09,10,10,10,10,4,15,0.00,0,,250
2013-11-29,54,42,29,22,18,16,69,46,22,30.09,30.05,29.98,10,10,10,16,6,22,0.00,0,,288
2013-11-30,47,36,24,22,20,18,75,55,34,30.20,30.11,30.01,10,10,10,9,3,14,0.00,3,,315